Terminal Aerodrome Forecast
Issued by NWS Twin Cities, MN

Home | Current Version | Previous Version | Text Only | Print | Product List | Glossary Off
Versions: 1 2 3 4 5 6 7 8 9 10 11 12 13 14 15 16 17 18 19 20 21

000
FTUS43 KMPX 241131
TAFEAU
TAF
KEAU 241131Z 2412/2512 26005KT P6SM SCT018 BKN035
      TEMPO 2412/2414 BKN020
     FM241400 26005KT P6SM SCT035
     FM241600 29011G18KT P6SM SCT040
     FM250100 27005KT P6SM FEW250=

USA.gov is the U.S. government's official web portal to all federal, state and local government web resources and services.